sensor_id;sensor_type;location;lat;lon;timestamp;pressure;altitude;pressure_sealevel;temperature;humidity
44313;BME280;38833;51.142;-0.974;2022-10-22T00:01:51;98795.85;;;23.61;40.46
44313;BME280;38833;51.142;-0.974;2022-10-22T00:04:24;98798.84;;;23.71;40.25
44313;BME280;38833;51.142;-0.974;2022-10-22T00:06:57;98800.21;;;23.71;40.24
44313;BME280;38833;51.142;-0.974;2022-10-22T00:09:30;98806.09;;;23.69;40.22
44313;BME280;38833;51.142;-0.974;2022-10-22T00:12:04;98810.60;;;23.67;40.19
44313;BME280;38833;51.142;-0.974;2022-10-22T00:14:38;98807.86;;;23.72;40.10
44313;BME280;38833;51.142;-0.974;2022-10-22T00:17:11;98810.14;;;23.93;40.08
44313;BME280;38833;51.142;-0.974;2022-10-22T00:19:44;98816.14;;;23.65;40.11
44313;BME280;38833;51.142;-0.974;2022-10-22T00:22:18;98821.73;;;23.86;40.07
44313;BME280;38833;51.142;-0.974;2022-10-22T00:24:51;98826.83;;;23.81;40.14
44313;BME280;38833;51.142;-0.974;2022-10-22T00:27:24;98830.90;;;23.81;40.11
44313;BME280;38833;51.142;-0.974;2022-10-22T00:29:57;98831.87;;;23.78;40.10
44313;BME280;38833;51.142;-0.974;2022-10-22T00:32:30;98837.15;;;23.67;39.91
44313;BME280;38833;51.142;-0.974;2022-10-22T00:35:04;98840.88;;;23.64;39.93
44313;BME280;38833;51.142;-0.974;2022-10-22T00:37:37;98842.71;;;23.58;39.95
44313;BME280;38833;51.142;-0.974;2022-10-22T00:40:11;98842.10;;;23.87;39.85
44313;BME280;38833;51.142;-0.974;2022-10-22T00:42:45;98846.60;;;23.55;39.95
44313;BME280;38833;51.142;-0.974;2022-10-22T00:45:22;98850.58;;;23.62;39.80
44313;BME280;38833;51.142;-0.974;2022-10-22T00:48:00;98854.95;;;23.65;39.73
44313;BME280;38833;51.142;-0.974;2022-10-22T00:50:38;98854.18;;;23.82;39.78
44313;BME280;38833;51.142;-0.974;2022-10-22T00:53:13;98854.41;;;23.67;39.62
44313;BME280;38833;51.142;-0.974;2022-10-22T00:55:51;98856.51;;;23.63;39.66
44313;BME280;38833;51.142;-0.974;2022-10-22T00:58:28;98858.55;;;23.59;39.70
44313;BME280;38833;51.142;-0.974;2022-10-22T01:01:04;98868.83;;;23.66;39.54
44313;BME280;38833;51.142;-0.974;2022-10-22T01:03:38;98880.46;;;23.65;39.54
44313;BME280;38833;51.142;-0.974;2022-10-22T01:06:17;98888.96;;;23.67;39.48
44313;BME280;38833;51.142;-0.974;2022-10-22T01:08:59;98895.97;;;23.72;39.37
44313;BME280;38833;51.142;-0.974;2022-10-22T01:11:42;98896.93;;;23.67;39.41
44313;BME280;38833;51.142;-0.974;2022-10-22T01:14:24;98901.96;;;23.63;39.45
44313;BME280;38833;51.142;-0.974;2022-10-22T01:17:06;98906.51;;;23.74;39.25
44313;BME280;38833;51.142;-0.974;2022-10-22T01:19:51;98907.50;;;23.67;39.35
44313;BME280;38833;51.142;-0.974;2022-10-22T01:22:31;98906.02;;;23.62;39.39
44313;BME280;38833;51.142;-0.974;2022-10-22T01:25:10;98915.67;;;23.83;39.38
44313;BME280;38833;51.142;-0.974;2022-10-22T01:27:54;98917.23;;;23.58;39.41
44313;BME280;38833;51.142;-0.974;2022-10-22T01:30:34;98921.72;;;23.88;39.25
44313;BME280;38833;51.142;-0.974;2022-10-22T01:33:12;98916.10;;;23.79;39.37
44313;BME280;38833;51.142;-0.974;2022-10-22T01:35:45;98916.96;;;23.59;39.28
44313;BME280;38833;51.142;-0.974;2022-10-22T01:38:21;98917.00;;;23.69;39.46
44313;BME280;38833;51.142;-0.974;2022-10-22T01:40:55;98925.36;;;23.53;39.35
44313;BME280;38833;51.142;-0.974;2022-10-22T01:43:29;98930.90;;;23.70;39.38
44313;BME280;38833;51.142;-0.974;2022-10-22T01:46:04;98935.87;;;23.69;39.38
44313;BME280;38833;51.142;-0.974;2022-10-22T01:48:44;98937.73;;;23.41;39.48
44313;BME280;38833;51.142;-0.974;2022-10-22T01:51:33;98943.11;;;23.55;39.26
44313;BME280;38833;51.142;-0.974;2022-10-22T01:54:20;98939.78;;;23.51;39.26
44313;BME280;38833;51.142;-0.974;2022-10-22T01:57:06;98945.16;;;23.54;39.19
44313;BME280;38833;51.142;-0.974;2022-10-22T01:59:49;98946.52;;;23.58;39.12
44313;BME280;38833;51.142;-0.974;2022-10-22T02:02:33;98951.16;;;23.58;39.05
44313;BME280;38833;51.142;-0.974;2022-10-22T02:05:11;98959.05;;;23.62;38.95
44313;BME280;38833;51.142;-0.974;2022-10-22T02:07:51;98959.60;;;23.59;38.98
44313;BME280;38833;51.142;-0.974;2022-10-22T02:10:28;98963.86;;;23.60;38.95
44313;BME280;38833;51.142;-0.974;2022-10-22T02:13:03;98968.85;;;23.85;38.88
44313;BME280;38833;51.142;-0.974;2022-10-22T02:15:42;98970.12;;;23.68;38.78
44313;BME280;38833;51.142;-0.974;2022-10-22T02:18:19;98972.25;;;23.62;38.85
44313;BME280;38833;51.142;-0.974;2022-10-22T02:20:54;98976.60;;;23.66;38.75
44313;BME280;38833;51.142;-0.974;2022-10-22T02:23:28;98979.36;;;23.80;38.87
44313;BME280;38833;51.142;-0.974;2022-10-22T02:26:06;98987.64;;;23.55;38.89
44313;BME280;38833;51.142;-0.974;2022-10-22T02:28:45;98991.53;;;23.60;38.78
44313;BME280;38833;51.142;-0.974;2022-10-22T02:31:25;98996.67;;;23.58;38.78
44313;BME280;38833;51.142;-0.974;2022-10-22T02:34:02;99004.66;;;23.90;38.63
44313;BME280;38833;51.142;-0.974;2022-10-22T02:36:37;99012.77;;;23.54;38.85
44313;BME280;38833;51.142;-0.974;2022-10-22T02:39:13;99012.54;;;23.53;38.82
44313;BME280;38833;51.142;-0.974;2022-10-22T02:41:47;99009.88;;;23.80;38.74
44313;BME280;38833;51.142;-0.974;2022-10-22T02:44:21;99017.28;;;23.60;38.69
44313;BME280;38833;51.142;-0.974;2022-10-22T02:46:54;99021.86;;;23.59;38.68
44313;BME280;38833;51.142;-0.974;2022-10-22T02:49:28;99021.54;;;23.50;38.77
44313;BME280;38833;51.142;-0.974;2022-10-22T02:52:01;99023.31;;;23.62;38.61
44313;BME280;38833;51.142;-0.974;2022-10-22T02:54:34;99020.70;;;23.56;38.70
44313;BME280;38833;51.142;-0.974;2022-10-22T02:57:07;99024.44;;;24.00;38.68
44313;BME280;38833;51.142;-0.974;2022-10-22T02:59:40;99030.76;;;23.50;38.74
44313;BME280;38833;51.142;-0.974;2022-10-22T03:02:14;99033.76;;;23.46;38.75
44313;BME280;38833;51.142;-0.974;2022-10-22T03:04:47;99037.07;;;23.62;38.84
44313;BME280;38833;51.142;-0.974;2022-10-22T03:07:20;99040.18;;;23.49;38.70
44313;BME280;38833;51.142;-0.974;2022-10-22T03:09:53;99043.01;;;23.64;38.78
44313;BME280;38833;51.142;-0.974;2022-10-22T03:12:27;99048.99;;;23.60;38.81
44313;BME280;38833;51.142;-0.974;2022-10-22T03:15:00;99053.74;;;23.48;38.64
44313;BME280;38833;51.142;-0.974;2022-10-22T03:17:33;99062.06;;;23.50;38.59
44313;BME280;38833;51.142;-0.974;2022-10-22T03:20:07;99059.19;;;23.43;38.71
44313;BME280;38833;51.142;-0.974;2022-10-22T03:22:41;99069.69;;;23.90;38.64
44313;BME280;38833;51.142;-0.974;2022-10-22T03:25:18;99078.03;;;23.64;38.68
44313;BME280;38833;51.142;-0.974;2022-10-22T03:27:53;99076.43;;;23.65;38.65
44313;BME280;38833;51.142;-0.974;2022-10-22T03:30:27;99080.49;;;23.68;38.61
44313;BME280;38833;51.142;-0.974;2022-10-22T03:33:00;99085.71;;;23.66;38.61
44313;BME280;38833;51.142;-0.974;2022-10-22T03:35:39;99088.73;;;23.83;38.68
44313;BME280;38833;51.142;-0.974;2022-10-22T03:38:15;99088.34;;;23.58;38.70
44313;BME280;38833;51.142;-0.974;2022-10-22T03:40:48;99090.21;;;23.78;38.74
44313;BME280;38833;51.142;-0.974;2022-10-22T03:43:22;99095.83;;;23.61;38.62
44313;BME280;38833;51.142;-0.974;2022-10-22T03:45:55;99103.41;;;23.36;38.70
44313;BME280;38833;51.142;-0.974;2022-10-22T03:48:28;99111.25;;;23.54;38.71
44313;BME280;38833;51.142;-0.974;2022-10-22T03:51:02;99112.65;;;23.30;38.71
44313;BME280;38833;51.142;-0.974;2022-10-22T03:53:35;99117.86;;;23.51;38.76
44313;BME280;38833;51.142;-0.974;2022-10-22T03:56:09;99120.13;;;23.34;38.61
44313;BME280;38833;51.142;-0.974;2022-10-22T03:58:43;99122.25;;;23.55;38.62
44313;BME280;38833;51.142;-0.974;2022-10-22T04:02:33;99126.25;;;23.34;38.56
44313;BME280;38833;51.142;-0.974;2022-10-22T04:05:07;99130.29;;;23.40;38.47
44313;BME280;38833;51.142;-0.974;2022-10-22T04:07:40;99133.35;;;23.87;38.42
44313;BME280;38833;51.142;-0.974;2022-10-22T04:10:13;99130.01;;;23.36;38.50
44313;BME280;38833;51.142;-0.974;2022-10-22T04:12:47;99131.09;;;23.40;38.39
44313;BME280;38833;51.142;-0.974;2022-10-22T04:15:20;99137.32;;;23.56;38.52
44313;BME280;38833;51.142;-0.974;2022-10-22T04:17:53;99135.82;;;23.26;38.57
44313;BME280;38833;51.142;-0.974;2022-10-22T04:20:27;99142.22;;;23.33;38.47
44313;BME280;38833;51.142;-0.974;2022-10-22T04:23:00;99142.40;;;23.23;38.57
44313;BME280;38833;51.142;-0.974;2022-10-22T04:25:33;99146.23;;;23.38;38.69
44313;BME280;38833;51.142;-0.974;2022-10-22T04:28:07;99151.91;;;23.40;38.64
44313;BME280;38833;51.142;-0.974;2022-10-22T04:30:40;99157.53;;;23.60;38.67
44313;BME280;38833;51.142;-0.974;2022-10-22T04:33:14;99161.10;;;23.39;38.60
44313;BME280;38833;51.142;-0.974;2022-10-22T04:35:47;99162.09;;;23.22;38.52
44313;BME280;38833;51.142;-0.974;2022-10-22T04:38:20;99159.07;;;23.17;38.57
44313;BME280;38833;51.142;-0.974;2022-10-22T04:40:53;99160.08;;;23.17;38.56
44313;BME280;38833;51.142;-0.974;2022-10-22T04:43:27;99159.08;;;23.41;38.53
44313;BME280;38833;51.142;-0.974;2022-10-22T04:46:00;99160.30;;;23.61;38.54
44313;BME280;38833;51.142;-0.974;2022-10-22T04:48:33;99169.42;;;23.57;38.60
44313;BME280;38833;51.142;-0.974;2022-10-22T04:51:07;99170.89;;;23.08;38.67
44313;BME280;38833;51.142;-0.974;2022-10-22T04:53:41;99171.22;;;23.69;38.40
44313;BME280;38833;51.142;-0.974;2022-10-22T04:56:16;99178.16;;;23.30;38.33
44313;BME280;38833;51.142;-0.974;2022-10-22T04:58:52;99180.00;;;23.60;38.16
44313;BME280;38833;51.142;-0.974;2022-10-22T05:01:27;99181.21;;;23.60;38.15
44313;BME280;38833;51.142;-0.974;2022-10-22T05:04:02;99184.82;;;23.87;38.08
44313;BME280;38833;51.142;-0.974;2022-10-22T05:06:36;99187.57;;;23.35;38.16
44313;BME280;38833;51.142;-0.974;2022-10-22T05:09:11;99192.15;;;23.75;38.20
44313;BME280;38833;51.142;-0.974;2022-10-22T05:11:47;99197.33;;;23.53;38.19
44313;BME280;38833;51.142;-0.974;2022-10-22T05:14:22;99200.75;;;23.58;38.06
44313;BME280;38833;51.142;-0.974;2022-10-22T05:16:56;99200.91;;;23.32;38.14
44313;BME280;38833;51.142;-0.974;2022-10-22T05:19:30;99206.58;;;23.27;38.20
44313;BME280;38833;51.142;-0.974;2022-10-22T05:22:04;99209.67;;;23.44;38.25
44313;BME280;38833;51.142;-0.974;2022-10-22T05:24:37;99211.53;;;23.42;38.26
44313;BME280;38833;51.142;-0.974;2022-10-22T05:27:11;99217.78;;;23.60;38.31
44313;BME280;38833;51.142;-0.974;2022-10-22T05:29:44;99220.22;;;23.32;38.40
44313;BME280;38833;51.142;-0.974;2022-10-22T05:32:17;99226.87;;;23.05;38.46
44313;BME280;38833;51.142;-0.974;2022-10-22T05:34:50;99234.12;;;23.52;38.18
44313;BME280;38833;51.142;-0.974;2022-10-22T05:37:23;99232.68;;;23.32;38.12
44313;BME280;38833;51.142;-0.974;2022-10-22T05:39:57;99231.16;;;23.68;38.24
44313;BME280;38833;51.142;-0.974;2022-10-22T05:42:31;99234.83;;;23.31;38.18
44313;BME280;38833;51.142;-0.974;2022-10-22T05:45:05;99236.01;;;23.27;38.28
44313;BME280;38833;51.142;-0.974;2022-10-22T05:47:38;99242.41;;;23.57;38.19
44313;BME280;38833;51.142;-0.974;2022-10-22T05:50:12;99247.93;;;23.52;38.32
44313;BME280;38833;51.142;-0.974;2022-10-22T05:52:45;99249.75;;;23.62;38.23
44313;BME280;38833;51.142;-0.974;2022-10-22T05:55:18;99250.43;;;23.30;38.40
44313;BME280;38833;51.142;-0.974;2022-10-22T05:57:51;99250.81;;;23.38;38.22
44313;BME280;38833;51.142;-0.974;2022-10-22T06:00:25;99259.48;;;23.53;38.06
44313;BME280;38833;51.142;-0.974;2022-10-22T06:02:58;99266.02;;;23.56;38.10
44313;BME280;38833;51.142;-0.974;2022-10-22T06:05:33;99271.53;;;23.45;37.91
44313;BME280;38833;51.142;-0.974;2022-10-22T06:08:09;99271.46;;;23.85;37.77
44313;BME280;38833;51.142;-0.974;2022-10-22T06:10:43;99275.11;;;23.97;37.67
44313;BME280;38833;51.142;-0.974;2022-10-22T06:13:17;99281.48;;;23.72;37.74
44313;BME280;38833;51.142;-0.974;2022-10-22T06:15:50;99286.23;;;24.04;37.71
44313;BME280;38833;51.142;-0.974;2022-10-22T06:18:23;99289.92;;;23.80;37.74
44313;BME280;38833;51.142;-0.974;2022-10-22T06:21:03;99285.44;;;24.19;37.63
44313;BME280;38833;51.142;-0.974;2022-10-22T06:23:37;99287.83;;;23.99;37.63
44313;BME280;38833;51.142;-0.974;2022-10-22T06:26:11;99287.48;;;23.81;37.59
44313;BME280;38833;51.142;-0.974;2022-10-22T06:28:44;99289.69;;;24.06;37.62
44313;BME280;38833;51.142;-0.974;2022-10-22T06:31:17;99289.64;;;24.14;37.54
44313;BME280;38833;51.142;-0.974;2022-10-22T06:33:50;99296.26;;;24.24;37.48
44313;BME280;38833;51.142;-0.974;2022-10-22T06:36:24;99301.55;;;24.05;37.45
44313;BME280;38833;51.142;-0.974;2022-10-22T06:38:57;99306.75;;;24.58;37.44
44313;BME280;38833;51.142;-0.974;2022-10-22T06:41:30;99311.09;;;24.35;37.44
44313;BME280;38833;51.142;-0.974;2022-10-22T06:44:04;99312.54;;;24.41;37.39
44313;BME280;38833;51.142;-0.974;2022-10-22T06:46:37;99318.10;;;24.49;37.26
44313;BME280;38833;51.142;-0.974;2022-10-22T06:49:13;99325.30;;;24.46;37.37
44313;BME280;38833;51.142;-0.974;2022-10-22T06:51:49;99331.62;;;24.49;37.35
44313;BME280;38833;51.142;-0.974;2022-10-22T06:54:22;99340.84;;;24.55;37.31
44313;BME280;38833;51.142;-0.974;2022-10-22T06:56:55;99345.07;;;24.34;37.27
44313;BME280;38833;51.142;-0.974;2022-10-22T06:59:29;99348.13;;;24.58;37.25
44313;BME280;38833;51.142;-0.974;2022-10-22T07:02:02;99357.15;;;24.89;37.22
44313;BME280;38833;51.142;-0.974;2022-10-22T07:04:35;99361.69;;;24.62;37.25
44313;BME280;38833;51.142;-0.974;2022-10-22T07:07:08;99365.59;;;24.84;37.31
44313;BME280;38833;51.142;-0.974;2022-10-22T07:09:42;99375.38;;;24.57;37.32
44313;BME280;38833;51.142;-0.974;2022-10-22T07:12:16;99376.60;;;24.55;37.33
44313;BME280;38833;51.142;-0.974;2022-10-22T07:14:49;99383.33;;;24.55;37.35
44313;BME280;38833;51.142;-0.974;2022-10-22T07:17:22;99389.29;;;24.40;37.26
44313;BME280;38833;51.142;-0.974;2022-10-22T07:19:55;99391.18;;;24.60;37.26
44313;BME280;38833;51.142;-0.974;2022-10-22T07:22:29;99399.73;;;24.58;37.26
44313;BME280;38833;51.142;-0.974;2022-10-22T07:25:03;99402.25;;;24.37;37.26
44313;BME280;38833;51.142;-0.974;2022-10-22T07:27:37;99407.61;;;24.86;37.22
44313;BME280;38833;51.142;-0.974;2022-10-22T07:30:10;99410.42;;;24.60;37.20
44313;BME280;38833;51.142;-0.974;2022-10-22T07:32:44;99415.30;;;24.56;37.26
44313;BME280;38833;51.142;-0.974;2022-10-22T07:35:17;99416.81;;;24.52;37.28
44313;BME280;38833;51.142;-0.974;2022-10-22T07:37:50;99418.31;;;24.78;37.25
44313;BME280;38833;51.142;-0.974;2022-10-22T07:40:24;99421.36;;;24.51;37.25
44313;BME280;38833;51.142;-0.974;2022-10-22T07:42:57;99424.78;;;24.34;37.13
44313;BME280;38833;51.142;-0.974;2022-10-22T07:45:31;99424.39;;;24.40;37.01
44313;BME280;38833;51.142;-0.974;2022-10-22T07:48:05;99425.80;;;24.37;37.01
44313;BME280;38833;51.142;-0.974;2022-10-22T07:50:38;99431.50;;;24.81;37.05
44313;BME280;38833;51.142;-0.974;2022-10-22T07:53:11;99430.78;;;24.59;36.97
44313;BME280;38833;51.142;-0.974;2022-10-22T07:55:47;99430.72;;;24.63;36.87
44313;BME280;38833;51.142;-0.974;2022-10-22T07:58:21;99432.90;;;24.35;36.92
44313;BME280;38833;51.142;-0.974;2022-10-22T08:00:56;99439.35;;;24.34;36.91
44313;BME280;38833;51.142;-0.974;2022-10-22T08:03:29;99439.93;;;24.61;36.85
44313;BME280;38833;51.142;-0.974;2022-10-22T08:06:03;99443.07;;;24.62;36.79
44313;BME280;38833;51.142;-0.974;2022-10-22T08:08:37;99447.12;;;24.60;36.79
44313;BME280;38833;51.142;-0.974;2022-10-22T08:11:11;99449.25;;;24.81;36.84
44313;BME280;38833;51.142;-0.974;2022-10-22T08:13:44;99453.35;;;24.76;36.90
44313;BME280;38833;51.142;-0.974;2022-10-22T08:16:18;99457.73;;;24.46;36.93
44313;BME280;38833;51.142;-0.974;2022-10-22T08:18:51;99459.97;;;24.41;36.98
44313;BME280;38833;51.142;-0.974;2022-10-22T08:21:25;99465.62;;;24.38;36.98
44313;BME280;38833;51.142;-0.974;2022-10-22T08:23:59;99469.63;;;24.37;37.00
44313;BME280;38833;51.142;-0.974;2022-10-22T08:26:32;99469.87;;;24.60;37.01
44313;BME280;38833;51.142;-0.974;2022-10-22T08:29:05;99469.65;;;24.32;37.01
44313;BME280;38833;51.142;-0.974;2022-10-22T08:31:39;99472.51;;;24.55;37.04
44313;BME280;38833;51.142;-0.974;2022-10-22T08:34:12;99476.13;;;24.27;37.02
44313;BME280;38833;51.142;-0.974;2022-10-22T08:36:46;99479.57;;;24.54;37.00
44313;BME280;38833;51.142;-0.974;2022-10-22T08:39:19;99474.29;;;24.23;37.00
44313;BME280;38833;51.142;-0.974;2022-10-22T08:42:01;99477.50;;;24.48;37.03
44313;BME280;38833;51.142;-0.974;2022-10-22T08:44:47;99483.56;;;24.21;37.03
44313;BME280;38833;51.142;-0.974;2022-10-22T08:47:41;99484.81;;;24.43;37.04
44313;BME280;38833;51.142;-0.974;2022-10-22T08:50:23;99489.60;;;24.23;36.97
44313;BME280;38833;51.142;-0.974;2022-10-22T08:53:02;99493.59;;;24.21;36.98
44313;BME280;38833;51.142;-0.974;2022-10-22T08:55:37;99496.11;;;24.10;37.10
44313;BME280;38833;51.142;-0.974;2022-10-22T08:58:17;99498.78;;;24.42;37.04
44313;BME280;38833;51.142;-0.974;2022-10-22T09:00:57;99502.11;;;24.39;37.06
44313;BME280;38833;51.142;-0.974;2022-10-22T09:03:38;99503.51;;;24.17;37.03
44313;BME280;38833;51.142;-0.974;2022-10-22T09:06:15;99505.41;;;24.19;37.01
44313;BME280;38833;51.142;-0.974;2022-10-22T09:08:51;99510.56;;;24.21;37.10
44313;BME280;38833;51.142;-0.974;2022-10-22T09:11:27;99512.18;;;23.92;37.63
44313;BME280;38833;51.142;-0.974;2022-10-22T09:14:03;99514.71;;;24.38;37.47
44313;BME280;38833;51.142;-0.974;2022-10-22T09:16:50;99517.55;;;24.04;37.56
44313;BME280;38833;51.142;-0.974;2022-10-22T09:19:33;99519.05;;;24.01;37.56
44313;BME280;38833;51.142;-0.974;2022-10-22T09:22:16;99518.68;;;24.24;37.57
44313;BME280;38833;51.142;-0.974;2022-10-22T09:24:56;99519.75;;;24.02;37.51
44313;BME280;38833;51.142;-0.974;2022-10-22T09:27:30;99522.61;;;24.29;37.47
44313;BME280;38833;51.142;-0.974;2022-10-22T09:30:04;99523.61;;;24.17;37.65
44313;BME280;38833;51.142;-0.974;2022-10-22T09:32:38;99523.83;;;24.20;37.58
44313;BME280;38833;51.142;-0.974;2022-10-22T09:35:13;99529.59;;;23.82;37.74
44313;BME280;38833;51.142;-0.974;2022-10-22T09:37:50;99534.40;;;24.07;37.81
44313;BME280;38833;51.142;-0.974;2022-10-22T09:40:24;99535.94;;;24.04;37.85
44313;BME280;38833;51.142;-0.974;2022-10-22T09:42:57;99535.72;;;23.91;38.03
44313;BME280;38833;51.142;-0.974;2022-10-22T09:45:31;99534.79;;;24.02;37.87
44313;BME280;38833;51.142;-0.974;2022-10-22T09:48:11;99530.94;;;23.97;37.94
44313;BME280;38833;51.142;-0.974;2022-10-22T09:50:49;99531.64;;;23.98;37.92
44313;BME280;38833;51.142;-0.974;2022-10-22T09:53:29;99531.46;;;24.00;37.87
44313;BME280;38833;51.142;-0.974;2022-10-22T09:56:07;99528.37;;;24.03;37.83
44313;BME280;38833;51.142;-0.974;2022-10-22T09:58:42;99531.57;;;24.11;37.77
44313;BME280;38833;51.142;-0.974;2022-10-22T10:01:18;99528.75;;;23.97;38.01
44313;BME280;38833;51.142;-0.974;2022-10-22T10:03:52;99532.13;;;24.08;37.88
44313;BME280;38833;51.142;-0.974;2022-10-22T10:06:26;99534.75;;;23.99;38.03
44313;BME280;38833;51.142;-0.974;2022-10-22T10:09:08;99535.34;;;23.94;38.08
44313;BME280;38833;51.142;-0.974;2022-10-22T10:11:50;99539.23;;;23.97;38.05
44313;BME280;38833;51.142;-0.974;2022-10-22T10:14:33;99542.50;;;23.62;38.18
44313;BME280;38833;51.142;-0.974;2022-10-22T10:17:15;99535.97;;;23.56;38.29
44313;BME280;38833;51.142;-0.974;2022-10-22T10:20:00;99539.05;;;24.05;37.88
44313;BME280;38833;51.142;-0.974;2022-10-22T10:22:45;99541.07;;;24.10;37.86
44313;BME280;38833;51.142;-0.974;2022-10-22T10:25:31;99539.25;;;23.79;38.00
44313;BME280;38833;51.142;-0.974;2022-10-22T10:28:18;99546.46;;;23.80;38.08
44313;BME280;38833;51.142;-0.974;2022-10-22T10:31:00;99551.38;;;24.06;38.04
44313;BME280;38833;51.142;-0.974;2022-10-22T10:33:43;99552.86;;;23.79;38.04
44313;BME280;38833;51.142;-0.974;2022-10-22T10:36:26;99551.35;;;23.83;38.05
44313;BME280;38833;51.142;-0.974;2022-10-22T10:39:07;99553.96;;;24.24;37.65
44313;BME280;38833;51.142;-0.974;2022-10-22T10:41:51;99556.74;;;23.90;37.59
44313;BME280;38833;51.142;-0.974;2022-10-22T10:44:40;99559.00;;;23.84;38.21
44313;BME280;38833;51.142;-0.974;2022-10-22T10:47:45;99557.48;;;23.71;38.19
44313;BME280;38833;51.142;-0.974;2022-10-22T10:50:27;99554.76;;;23.79;38.44
44313;BME280;38833;51.142;-0.974;2022-10-22T10:53:11;99553.18;;;23.33;38.92
44313;BME280;38833;51.142;-0.974;2022-10-22T10:55:55;99550.08;;;23.39;38.91
44313;BME280;38833;51.142;-0.974;2022-10-22T10:58:39;99555.35;;;23.92;38.43
44313;BME280;38833;51.142;-0.974;2022-10-22T11:01:26;99557.94;;;23.93;38.35
44313;BME280;38833;51.142;-0.974;2022-10-22T11:04:17;99557.97;;;23.62;38.35
44313;BME280;38833;51.142;-0.974;2022-10-22T11:06:57;99556.75;;;23.91;38.28
44313;BME280;38833;51.142;-0.974;2022-10-22T11:09:36;99555.73;;;23.85;38.33
44313;BME280;38833;51.142;-0.974;2022-10-22T11:12:16;99551.41;;;23.78;38.47
44313;BME280;38833;51.142;-0.974;2022-10-22T11:14:57;99551.25;;;23.70;38.57
44313;BME280;38833;51.142;-0.974;2022-10-22T11:17:38;99553.93;;;23.83;38.35
44313;BME280;38833;51.142;-0.974;2022-10-22T11:20:15;99551.28;;;23.65;38.68
44313;BME280;38833;51.142;-0.974;2022-10-22T11:22:55;99552.74;;;23.55;38.95
44313;BME280;38833;51.142;-0.974;2022-10-22T11:25:32;99547.93;;;23.78;38.61
44313;BME280;38833;51.142;-0.974;2022-10-22T11:28:12;99551.28;;;23.50;38.65
44313;BME280;38833;51.142;-0.974;2022-10-22T11:30:50;99547.96;;;23.76;38.70
44313;BME280;38833;51.142;-0.974;2022-10-22T11:33:32;99547.26;;;23.45;39.48
44313;BME280;38833;51.142;-0.974;2022-10-22T11:36:09;99550.70;;;23.85;39.23
44313;BME280;38833;51.142;-0.974;2022-10-22T11:38:43;99547.68;;;23.74;39.30
44313;BME280;38833;51.142;-0.974;2022-10-22T11:41:20;99549.14;;;23.56;39.17
44313;BME280;38833;51.142;-0.974;2022-10-22T11:43:58;99546.75;;;23.72;39.10
44313;BME280;38833;51.142;-0.974;2022-10-22T11:46:42;99551.87;;;23.56;39.18
44313;BME280;38833;51.142;-0.974;2022-10-22T11:49:22;99550.74;;;23.56;38.85
44313;BME280;38833;51.142;-0.974;2022-10-22T11:52:20;99560.51;;;23.39;39.01
44313;BME280;38833;51.142;-0.974;2022-10-22T11:54:55;99559.05;;;23.37;38.98
44313;BME280;38833;51.142;-0.974;2022-10-22T11:57:35;99553.55;;;23.56;39.09
44313;BME280;38833;51.142;-0.974;2022-10-22T12:00:35;99552.69;;;23.40;39.00
44313;BME280;38833;51.142;-0.974;2022-10-22T12:03:16;99549.61;;;23.77;39.03
44313;BME280;38833;51.142;-0.974;2022-10-22T12:06:04;99543.48;;;23.52;39.18
44313;BME280;38833;51.142;-0.974;2022-10-22T12:08:41;99544.66;;;23.65;39.35
44313;BME280;38833;51.142;-0.974;2022-10-22T12:11:20;99545.06;;;23.28;39.67
44313;BME280;38833;51.142;-0.974;2022-10-22T12:14:06;99541.85;;;23.05;40.11
44313;BME280;38833;51.142;-0.974;2022-10-22T12:16:50;99542.05;;;22.73;40.43
44313;BME280;38833;51.142;-0.974;2022-10-22T12:19:28;99542.68;;;22.95;40.24
44313;BME280;38833;51.142;-0.974;2022-10-22T12:22:12;99540.46;;;22.78;40.47
44313;BME280;38833;51.142;-0.974;2022-10-22T12:24:48;99541.50;;;22.86;40.72
44313;BME280;38833;51.142;-0.974;2022-10-22T12:27:24;99546.55;;;22.56;41.21
44313;BME280;38833;51.142;-0.974;2022-10-22T12:29:59;99549.40;;;22.52;41.28
44313;BME280;38833;51.142;-0.974;2022-10-22T12:32:35;99553.86;;;22.59;41.15
44313;BME280;38833;51.142;-0.974;2022-10-22T12:35:14;99556.69;;;22.48;41.38
44313;BME280;38833;51.142;-0.974;2022-10-22T12:37:49;99553.01;;;22.38;41.51
44313;BME280;38833;51.142;-0.974;2022-10-22T12:40:25;99552.02;;;22.53;41.30
44313;BME280;38833;51.142;-0.974;2022-10-22T12:43:01;99547.62;;;22.50;41.23
44313;BME280;38833;51.142;-0.974;2022-10-22T12:45:35;99547.89;;;22.52;41.22
44313;BME280;38833;51.142;-0.974;2022-10-22T12:48:15;99547.87;;;22.48;41.17
44313;BME280;38833;51.142;-0.974;2022-10-22T12:50:51;99549.31;;;22.45;41.16
44313;BME280;38833;51.142;-0.974;2022-10-22T12:53:28;99544.55;;;22.62;41.23
44313;BME280;38833;51.142;-0.974;2022-10-22T12:56:04;99543.86;;;22.68;41.20
44313;BME280;38833;51.142;-0.974;2022-10-22T12:58:40;99544.28;;;22.59;40.87
44313;BME280;38833;51.142;-0.974;2022-10-22T13:01:15;99544.87;;;22.56;41.01
44313;BME280;38833;51.142;-0.974;2022-10-22T13:04:01;99544.98;;;22.58;40.99
44313;BME280;38833;51.142;-0.974;2022-10-22T13:06:35;99545.10;;;22.68;40.80
44313;BME280;38833;51.142;-0.974;2022-10-22T13:09:15;99538.99;;;22.69;40.71
44313;BME280;38833;51.142;-0.974;2022-10-22T13:11:52;99538.63;;;22.64;40.57
44313;BME280;38833;51.142;-0.974;2022-10-22T13:14:27;99540.49;;;22.83;40.36
44313;BME280;38833;51.142;-0.974;2022-10-22T13:17:06;99541.94;;;22.89;40.21
44313;BME280;38833;51.142;-0.974;2022-10-22T13:19:43;99536.66;;;22.94;40.43
44313;BME280;38833;51.142;-0.974;2022-10-22T13:22:33;99536.01;;;22.72;40.39
44313;BME280;38833;51.142;-0.974;2022-10-22T13:25:26;99530.02;;;22.88;40.45
44313;BME280;38833;51.142;-0.974;2022-10-22T13:28:02;99531.72;;;22.62;41.00
44313;BME280;38833;51.142;-0.974;2022-10-22T13:30:51;99529.15;;;22.74;40.75
44313;BME280;38833;51.142;-0.974;2022-10-22T13:33:28;99526.13;;;22.92;40.49
44313;BME280;38833;51.142;-0.974;2022-10-22T13:36:04;99527.89;;;22.97;40.45
44313;BME280;38833;51.142;-0.974;2022-10-22T13:38:38;99526.14;;;22.93;40.51
44313;BME280;38833;51.142;-0.974;2022-10-22T13:41:21;99526.66;;;22.80;40.75